Great Barton, United Kingdom
Current Conditions -  °F | °C
As of 12:45 PM on Friday 24 Oct 2014 (Local Time) from EGUL Reporting Station
Broken Clouds Broken Clouds  
Wind Chill: 63°   Ceiling: 2000
Heat Index: 63°   Visibility: 6mi
Dew Point: 63°   Wind: 13mph
Humidity: 100%   Direction: 220°SW
Pressure: 29.92"   Gusts: NA
Location:  52.27°N, 0.77°E
Report Text: EGUL 241145Z AUTO 22011KT 9999 BKN020 BKN025 17/17 A2992 RMK AO2
Loading
Personal Weather Stations






























Interactive Weather Map
Tropical Storm Tracking
New forecast layout! Learn more

10-Day Weather Forecast

Advertisements
Track Severe Weather on mobile